createdAt,value
2019-03-12T00:02:28.410Z,6.07
2019-03-12T00:04:56.127Z,6.07
2019-03-12T00:07:22.894Z,5.99
2019-03-12T00:09:49.632Z,6.06
2019-03-12T00:12:16.340Z,5.95
2019-03-12T00:14:43.086Z,5.91
2019-03-12T00:17:09.831Z,5.83
2019-03-12T00:19:36.536Z,5.83
2019-03-12T00:22:03.265Z,5.85
2019-03-12T00:24:30.000Z,5.87
2019-03-12T00:26:56.719Z,5.91
2019-03-12T00:29:23.448Z,5.83
2019-03-12T00:31:50.148Z,5.83
2019-03-12T00:34:16.890Z,5.84
2019-03-12T00:36:43.846Z,5.87
2019-03-12T00:39:10.574Z,5.83
2019-03-12T00:41:37.281Z,5.83
2019-03-12T00:44:04.106Z,5.78
2019-03-12T00:46:30.917Z,5.82
2019-03-12T00:48:57.639Z,5.95
2019-03-12T00:51:24.340Z,6.02
2019-03-12T00:53:51.063Z,6.02
2019-03-12T00:56:19.032Z,6.09
2019-03-12T00:58:45.749Z,5.94
2019-03-12T01:01:12.458Z,5.91
2019-03-12T01:03:39.192Z,5.75
2019-03-12T01:06:05.896Z,5.90
2019-03-12T01:08:32.633Z,5.90
2019-03-12T01:10:59.342Z,5.89
2019-03-12T01:13:26.038Z,5.89
2019-03-12T01:15:52.752Z,5.76
2019-03-12T01:18:19.466Z,5.61
2019-03-12T01:20:46.211Z,5.78
2019-03-12T01:23:12.886Z,5.78
2019-03-12T01:25:39.713Z,5.74
2019-03-12T01:28:06.428Z,5.76
2019-03-12T01:30:33.148Z,5.73
2019-03-12T01:33:00.293Z,5.71
2019-03-12T01:35:26.996Z,5.74
2019-03-12T01:37:53.742Z,5.62
2019-03-12T01:40:20.446Z,5.51
2019-03-12T01:42:47.154Z,5.47
2019-03-12T01:45:15.135Z,5.42
2019-03-12T01:47:41.809Z,5.42
2019-03-12T01:50:08.976Z,5.41
2019-03-12T01:52:35.673Z,5.41
2019-03-12T01:55:02.511Z,5.41
2019-03-12T01:57:29.195Z,5.24
2019-03-12T01:59:55.965Z,5.24
2019-03-12T02:02:22.753Z,5.28
2019-03-12T02:04:49.475Z,5.31
2019-03-12T02:07:16.207Z,5.32
2019-03-12T02:09:42.910Z,5.43
2019-03-12T02:12:09.608Z,5.47
2019-03-12T02:14:36.316Z,5.47
2019-03-12T02:17:02.990Z,5.34
2019-03-12T02:19:29.719Z,5.22
2019-03-12T02:21:56.403Z,5.22
2019-03-12T02:24:23.439Z,5.17
2019-03-12T02:26:50.143Z,5.17
2019-03-12T02:29:16.849Z,5.22
2019-03-12T02:31:43.557Z,5.22
2019-03-12T02:34:10.256Z,5.25
2019-03-12T02:36:36.936Z,5.25
2019-03-12T02:39:04.558Z,5.18
2019-03-12T02:41:31.253Z,5.19
2019-03-12T02:43:57.958Z,5.24
2019-03-12T02:46:24.692Z,5.17
2019-03-12T02:48:51.371Z,5.02
2019-03-12T02:51:18.085Z,4.82
2019-03-12T02:53:45.121Z,4.80
2019-03-12T02:56:11.863Z,4.77
2019-03-12T02:58:38.664Z,4.74
2019-03-12T03:01:05.465Z,4.66
2019-03-12T03:03:32.167Z,4.69
2019-03-12T03:06:05.824Z,4.66
2019-03-12T03:08:32.974Z,4.67
2019-03-12T03:10:59.701Z,4.59
2019-03-12T03:13:26.397Z,4.58
2019-03-12T03:15:53.108Z,4.58
2019-03-12T03:18:19.802Z,4.62
2019-03-12T03:20:46.562Z,4.80
2019-03-12T03:23:13.243Z,4.73
2019-03-12T03:25:41.890Z,4.71
2019-03-12T03:28:08.605Z,4.63
2019-03-12T03:30:35.887Z,4.63
2019-03-12T03:33:02.566Z,4.62
2019-03-12T03:35:29.265Z,4.68
2019-03-12T03:37:55.970Z,4.75
2019-03-12T03:40:22.713Z,4.75
2019-03-12T03:42:49.852Z,4.86
2019-03-12T03:45:16.525Z,4.84
2019-03-12T03:47:43.278Z,4.83
2019-03-12T03:50:10.376Z,4.83
2019-03-12T03:52:37.129Z,4.71
2019-03-12T03:55:04.830Z,4.71
2019-03-12T03:57:31.562Z,4.71
2019-03-12T03:59:58.283Z,4.75
2019-03-12T04:02:25.427Z,4.67
2019-03-12T04:04:52.517Z,4.67
2019-03-12T04:07:19.348Z,4.72
2019-03-12T04:09:46.023Z,4.72
2019-03-12T04:12:12.736Z,4.88
2019-03-12T04:14:39.413Z,4.87
2019-03-12T04:17:06.127Z,4.87
2019-03-12T04:19:33.139Z,4.89
2019-03-12T04:21:59.828Z,4.94
2019-03-12T04:24:26.903Z,4.93
2019-03-12T04:26:53.595Z,4.72
2019-03-12T04:29:20.306Z,4.69
2019-03-12T04:31:47.024Z,4.69
2019-03-12T04:34:39.955Z,4.68
2019-03-12T04:37:06.666Z,4.68
2019-03-12T04:39:33.350Z,4.65
2019-03-12T04:42:00.073Z,4.74
2019-03-12T04:44:26.791Z,4.75
2019-03-12T04:46:53.467Z,4.75
2019-03-12T04:49:20.173Z,4.85
2019-03-12T04:51:46.886Z,4.89
2019-03-12T04:54:15.162Z,4.98
2019-03-12T04:56:41.874Z,4.94
2019-03-12T04:59:08.563Z,4.71
2019-03-12T05:01:35.279Z,4.71
2019-03-12T05:04:02.077Z,4.74
2019-03-12T05:06:28.776Z,4.79
2019-03-12T05:08:55.460Z,4.77
2019-03-12T05:11:22.163Z,4.78
2019-03-12T05:14:25.588Z,4.83
2019-03-12T05:16:57.719Z,4.77
2019-03-12T05:19:25.465Z,4.89
2019-03-12T05:21:54.069Z,4.89
2019-03-12T05:24:23.321Z,4.87
2019-03-12T05:26:50.503Z,4.70
2019-03-12T05:29:17.237Z,4.82
2019-03-12T05:31:43.951Z,4.94
2019-03-12T05:34:10.692Z,5.00
2019-03-12T05:36:37.431Z,5.00
2019-03-12T05:39:05.636Z,4.88
2019-03-12T05:41:32.687Z,4.94
2019-03-12T05:43:59.531Z,4.92
2019-03-12T05:46:26.226Z,4.92
2019-03-12T05:48:52.927Z,4.97
2019-03-12T05:51:19.621Z,4.98
2019-03-12T05:53:47.614Z,4.98
2019-03-12T05:56:14.330Z,5.01
2019-03-12T05:58:41.024Z,4.88
2019-03-12T06:01:08.041Z,4.76
2019-03-12T06:03:34.735Z,4.76
2019-03-12T06:06:01.464Z,4.46
2019-03-12T06:08:28.133Z,4.46
2019-03-12T06:10:54.847Z,4.38
2019-03-12T06:13:21.847Z,4.31
2019-03-12T06:15:48.626Z,4.35
2019-03-12T06:18:15.643Z,4.46
2019-03-12T06:20:42.362Z,4.50
2019-03-12T06:23:09.117Z,4.51
2019-03-12T06:25:35.960Z,4.53
2019-03-12T06:28:02.703Z,4.44
2019-03-12T06:30:31.317Z,4.33
2019-03-12T06:33:03.900Z,4.51
2019-03-12T06:35:38.410Z,4.54
2019-03-12T06:38:19.564Z,4.58
2019-03-12T06:41:03.116Z,4.57
2019-03-12T06:43:52.075Z,4.60
2019-03-12T06:46:38.795Z,4.62
2019-03-12T06:49:25.202Z,4.57
2019-03-12T06:52:01.140Z,4.67
2019-03-12T06:54:53.351Z,4.74
2019-03-12T06:57:30.886Z,4.74
2019-03-12T07:00:19.835Z,4.72
2019-03-12T07:03:08.773Z,4.72
2019-03-12T07:05:45.490Z,4.80
2019-03-12T07:08:21.516Z,4.93
2019-03-12T07:11:03.446Z,5.11
2019-03-12T07:14:02.987Z,5.19
2019-03-12T07:17:01.375Z,5.38
2019-03-12T07:19:39.306Z,5.51
2019-03-12T07:22:24.817Z,5.55
2019-03-12T07:25:00.957Z,5.55
2019-03-12T07:27:47.564Z,5.64
2019-03-12T07:30:36.940Z,5.87
2019-03-12T07:33:31.914Z,5.88
2019-03-12T07:36:11.798Z,5.77
2019-03-12T07:41:37.845Z,6.00
2019-03-12T07:44:11.025Z,6.10
2019-03-12T07:47:03.420Z,6.24
2019-03-12T07:49:49.764Z,6.28
2019-03-12T07:52:32.127Z,6.21
2019-03-12T07:55:23.196Z,6.26
2019-03-12T07:58:31.143Z,6.41
2019-03-12T08:00:59.562Z,6.41
2019-03-12T08:03:40.144Z,6.42
2019-03-12T08:06:22.160Z,6.55
2019-03-12T08:09:10.736Z,6.85
2019-03-12T08:11:59.469Z,6.85
2019-03-12T08:14:35.916Z,7.11
2019-03-12T08:17:19.231Z,7.15
2019-03-12T08:20:14.257Z,7.24
2019-03-12T08:23:01.527Z,7.26
2019-03-12T08:25:46.781Z,7.39
2019-03-12T08:28:28.082Z,7.39
2019-03-12T08:31:03.354Z,7.42
2019-03-12T08:33:51.494Z,7.48
2019-03-12T08:36:23.772Z,7.54
2019-03-12T08:39:13.204Z,7.54
2019-03-12T08:41:55.881Z,7.48
2019-03-12T08:44:48.154Z,7.46
2019-03-12T08:47:38.804Z,7.40
2019-03-12T08:50:16.924Z,7.40
2019-03-12T08:52:51.542Z,7.51
2019-03-12T08:55:46.690Z,7.45
2019-03-12T08:58:31.634Z,7.45
2019-03-12T09:01:15.872Z,7.60
2019-03-12T09:04:03.902Z,7.67
2019-03-12T09:06:38.752Z,7.72
2019-03-12T09:09:26.916Z,7.89
2019-03-12T09:12:02.416Z,8.11
2019-03-12T09:14:54.829Z,8.11
2019-03-12T09:17:39.702Z,8.07
2019-03-12T09:20:26.332Z,8.02
2019-03-12T09:23:15.166Z,8.18
2019-03-12T09:26:01.538Z,8.18
2019-03-12T09:28:52.338Z,8.21
2019-03-12T09:31:53.994Z,8.24
2019-03-12T09:34:38.914Z,8.52
2019-03-12T09:37:31.408Z,8.54
2019-03-12T09:40:12.422Z,8.67
2019-03-12T09:43:12.547Z,8.81
2019-03-12T09:46:07.833Z,9.07
2019-03-12T09:48:45.434Z,9.27
2019-03-12T09:51:25.427Z,9.47
2019-03-12T09:54:21.863Z,9.55
2019-03-12T09:57:03.148Z,9.70
2019-03-12T09:59:39.900Z,9.68
2019-03-12T10:02:44.592Z,9.70
2019-03-12T10:05:24.474Z,9.70
2019-03-12T10:07:59.132Z,9.56
2019-03-12T10:10:37.209Z,9.36
2019-03-12T10:13:14.194Z,9.39
2019-03-12T10:16:00.357Z,9.55
2019-03-12T10:18:52.676Z,9.51
2019-03-12T10:21:47.858Z,9.64
2019-03-12T10:24:32.818Z,9.55
2019-03-12T10:27:17.826Z,9.73
2019-03-12T10:29:50.784Z,9.74
2019-03-12T10:32:36.606Z,9.90
2019-03-12T10:35:29.916Z,9.83
2019-03-12T10:38:53.193Z,9.88
2019-03-12T10:41:42.583Z,9.87
2019-03-12T10:44:17.786Z,9.78
2019-03-12T10:46:54.331Z,9.92
2019-03-12T10:49:22.181Z,9.87
2019-03-12T10:51:50.736Z,9.78
2019-03-12T10:54:17.580Z,9.82
2019-03-12T10:56:44.567Z,9.87
2019-03-12T10:59:11.474Z,10.00
2019-03-12T11:01:38.306Z,10.11
2019-03-12T11:04:07.095Z,10.24
2019-03-12T11:06:33.826Z,10.22
2019-03-12T11:09:00.541Z,10.34
2019-03-12T11:11:27.587Z,10.31
2019-03-12T11:13:54.329Z,10.31
2019-03-12T11:16:21.130Z,10.45
2019-03-12T11:18:47.978Z,10.36
2019-03-12T11:21:17.456Z,10.26
2019-03-12T11:23:44.503Z,10.21
2019-03-12T11:26:11.242Z,10.18
2019-03-12T11:28:38.394Z,10.22
2019-03-12T11:31:05.210Z,10.26
2019-03-12T11:33:31.976Z,10.06
2019-03-12T11:35:58.727Z,10.16
2019-03-12T11:38:27.757Z,10.28
2019-03-12T11:40:54.472Z,10.37
2019-03-12T11:43:21.219Z,10.20
2019-03-12T11:45:48.263Z,10.37
2019-03-12T11:48:15.065Z,10.39
2019-03-12T11:50:41.761Z,10.60
2019-03-12T11:53:08.570Z,10.75
2019-03-12T11:55:35.288Z,10.89
2019-03-12T11:58:02.029Z,10.79
2019-03-12T12:00:38.157Z,10.83
2019-03-12T12:03:04.863Z,10.87
2019-03-12T12:05:31.613Z,11.07
2019-03-12T12:07:58.329Z,10.96
2019-03-12T12:10:25.405Z,11.06
2019-03-12T12:12:52.585Z,11.04
2019-03-12T12:15:19.295Z,11.05
2019-03-12T12:17:49.082Z,11.03
2019-03-12T12:20:28.982Z,10.98
2019-03-12T12:22:45.794Z,11.12
2019-03-12T12:25:18.303Z,11.33
2019-03-12T12:27:49.134Z,11.59
2019-03-12T12:30:16.676Z,11.86
2019-03-12T12:32:43.384Z,11.91
2019-03-12T12:35:10.137Z,11.69
2019-03-12T12:37:36.854Z,11.66
2019-03-12T12:40:04.444Z,11.65
2019-03-12T12:42:31.537Z,11.65
2019-03-12T12:44:59.697Z,11.68
2019-03-12T12:47:35.839Z,11.59
2019-03-12T12:50:03.435Z,11.63
2019-03-12T12:52:30.569Z,11.62
2019-03-12T12:54:57.403Z,11.76
2019-03-12T12:57:24.305Z,11.74
2019-03-12T12:59:52.720Z,11.79
2019-03-12T13:02:19.441Z,11.87
2019-03-12T13:04:46.205Z,12.04
2019-03-12T13:07:13.309Z,11.99
2019-03-12T13:09:40.041Z,12.08
2019-03-12T13:12:09.543Z,12.17
2019-03-12T13:14:41.360Z,12.09
2019-03-12T13:17:05.219Z,12.11
2019-03-12T13:19:31.956Z,12.09
2019-03-12T13:21:58.646Z,12.27
2019-03-12T13:24:25.414Z,12.29
2019-03-12T13:26:55.032Z,12.35
2019-03-12T13:29:22.081Z,12.51
2019-03-12T13:31:50.961Z,12.76
2019-03-12T13:34:17.769Z,12.83
2019-03-12T13:36:44.761Z,12.87
2019-03-12T13:39:11.583Z,12.79
2019-03-12T13:41:38.373Z,12.73
2019-03-12T13:44:05.202Z,12.82
2019-03-12T13:46:31.998Z,12.91
2019-03-12T13:49:00.763Z,12.89
2019-03-12T13:51:31.126Z,12.79
2019-03-12T13:54:00.973Z,12.92
2019-03-12T13:56:27.770Z,12.86
2019-03-12T13:58:54.565Z,12.67
2019-03-12T14:01:21.375Z,12.55
2019-03-12T14:03:48.381Z,12.58
2019-03-12T14:06:19.669Z,12.60
2019-03-12T14:08:46.387Z,12.46
2019-03-12T14:11:13.132Z,12.60
2019-03-12T14:13:50.129Z,12.64
2019-03-12T14:16:15.146Z,12.72
2019-03-12T14:18:41.927Z,12.80
2019-03-12T14:21:14.486Z,12.80
2019-03-12T14:23:58.724Z,12.99
2019-03-12T14:26:25.657Z,12.74
2019-03-12T14:28:52.891Z,12.60
2019-03-12T14:31:23.132Z,12.65
2019-03-12T14:33:50.114Z,12.49
2019-03-12T14:36:17.306Z,12.34
2019-03-12T14:38:44.633Z,12.47
2019-03-12T14:41:11.327Z,12.50
2019-03-12T14:43:38.087Z,12.41
2019-03-12T14:46:04.884Z,12.47
2019-03-12T14:48:40.844Z,12.70
2019-03-12T14:51:23.566Z,12.98
2019-03-12T14:53:51.770Z,13.25
2019-03-12T14:56:18.687Z,13.28
2019-03-12T14:58:45.409Z,13.15
2019-03-12T15:01:12.128Z,13.16
2019-03-12T15:03:39.246Z,13.26
2019-03-12T15:06:09.276Z,13.36
2019-03-12T15:08:37.376Z,13.35
2019-03-12T15:11:07.345Z,13.47
2019-03-12T15:13:34.581Z,13.63
2019-03-12T15:16:01.355Z,13.97
2019-03-12T15:18:28.301Z,13.94
2019-03-12T15:20:55.523Z,13.55
2019-03-12T15:23:22.234Z,13.30
2019-03-12T15:25:50.842Z,13.07
2019-03-12T15:28:20.790Z,13.04
2019-03-12T15:30:47.604Z,12.89
2019-03-12T15:33:15.047Z,12.99
2019-03-12T15:35:41.835Z,12.87
2019-03-12T15:38:08.585Z,12.93
2019-03-12T15:40:35.351Z,12.96
2019-03-12T15:43:02.404Z,12.66
2019-03-12T15:45:29.137Z,12.65
2019-03-12T15:47:58.943Z,12.59
2019-03-12T15:50:25.685Z,12.55
2019-03-12T15:52:52.390Z,12.58
2019-03-12T15:55:19.234Z,12.41
2019-03-12T15:57:45.924Z,12.43
2019-03-12T16:00:13.072Z,12.51
2019-03-12T16:02:39.898Z,12.61
2019-03-12T16:05:13.146Z,12.65
2019-03-12T16:07:42.107Z,12.36
2019-03-12T16:10:08.967Z,12.38
2019-03-12T16:12:36.263Z,12.38
2019-03-12T16:15:03.082Z,12.21
2019-03-12T16:17:30.067Z,12.13
2019-03-12T16:19:57.368Z,12.17
2019-03-12T16:22:24.122Z,12.13
2019-03-12T16:24:50.975Z,12.25
2019-03-12T16:27:17.739Z,11.99
2019-03-12T16:29:44.449Z,12.02
2019-03-12T16:32:11.248Z,11.87
2019-03-12T16:34:38.333Z,11.89
2019-03-12T16:37:05.077Z,11.81
2019-03-12T16:39:32.733Z,11.89
2019-03-12T16:41:59.688Z,11.81
2019-03-12T16:44:26.444Z,11.84
2019-03-12T16:46:53.156Z,11.84
2019-03-12T16:49:20.014Z,11.77
2019-03-12T16:51:46.757Z,11.66
2019-03-12T16:54:13.628Z,11.71
2019-03-12T16:56:45.195Z,11.77
2019-03-12T16:59:09.062Z,11.67
2019-03-12T17:01:36.965Z,11.60
2019-03-12T17:04:03.687Z,11.63
2019-03-12T17:06:30.489Z,11.67
2019-03-12T17:08:57.196Z,11.51
2019-03-12T17:11:23.998Z,11.57
2019-03-12T17:13:50.720Z,11.59
2019-03-12T17:16:17.460Z,11.47
2019-03-12T17:18:46.275Z,11.46
2019-03-12T17:21:12.977Z,11.43
2019-03-12T17:23:39.708Z,11.46
2019-03-12T17:26:06.593Z,11.29
2019-03-12T17:28:33.322Z,11.21
2019-03-12T17:31:00.510Z,11.28
2019-03-12T17:33:27.522Z,11.17
2019-03-12T17:35:54.276Z,11.13
2019-03-12T17:38:21.034Z,11.13
2019-03-12T17:40:47.921Z,11.17
2019-03-12T17:43:14.695Z,11.34
2019-03-12T17:45:41.389Z,11.24
2019-03-12T17:48:08.172Z,11.21
2019-03-12T17:50:35.036Z,11.25
2019-03-12T17:53:02.042Z,11.34
2019-03-12T17:55:28.785Z,11.21
2019-03-12T17:57:55.490Z,11.23
2019-03-12T18:00:23.524Z,11.31
2019-03-12T18:02:50.253Z,11.28
2019-03-12T18:05:17.103Z,11.35
2019-03-12T18:07:44.017Z,11.20
2019-03-12T18:10:11.297Z,11.13
2019-03-12T18:12:38.295Z,11.16
2019-03-12T18:15:05.725Z,11.15
2019-03-12T18:17:32.526Z,11.16
2019-03-12T18:19:59.357Z,11.21
2019-03-12T18:22:26.108Z,11.21
2019-03-12T18:24:52.914Z,11.19
2019-03-12T18:27:19.619Z,11.33
2019-03-12T18:29:46.369Z,11.32
2019-03-12T18:32:13.104Z,11.21
2019-03-12T18:34:39.870Z,11.21
2019-03-12T18:37:06.598Z,11.23
2019-03-12T18:39:33.607Z,11.24
2019-03-12T18:42:00.328Z,11.23
2019-03-12T18:44:27.171Z,11.31
2019-03-12T18:46:53.920Z,11.32
2019-03-12T18:49:20.600Z,11.27
2019-03-12T18:51:52.192Z,11.28
2019-03-12T18:54:18.987Z,11.41
2019-03-12T18:56:45.672Z,11.31
2019-03-12T18:59:12.406Z,11.21
2019-03-12T19:01:39.132Z,11.28
2019-03-12T19:04:06.336Z,11.29
2019-03-12T19:06:33.039Z,11.43
2019-03-12T19:09:01.679Z,11.41
2019-03-12T19:11:28.945Z,11.40
2019-03-12T19:13:57.494Z,11.32
2019-03-12T19:16:24.192Z,11.44
2019-03-12T19:18:51.015Z,11.40
2019-03-12T19:21:17.717Z,11.37
2019-03-12T19:23:44.406Z,11.41
2019-03-12T19:26:11.700Z,11.30
2019-03-12T19:28:38.531Z,11.31
2019-03-12T19:31:22.484Z,11.28
2019-03-12T19:33:48.437Z,11.30
2019-03-12T19:36:15.124Z,11.41
2019-03-12T19:38:41.914Z,11.40
2019-03-12T19:41:08.761Z,11.43
2019-03-12T19:43:35.482Z,11.41
2019-03-12T19:46:02.205Z,11.44
2019-03-12T19:48:29.259Z,11.39
2019-03-12T19:50:56.071Z,11.48
2019-03-12T19:53:22.789Z,11.43
2019-03-12T19:55:52.400Z,11.47
2019-03-12T19:58:19.482Z,11.48
2019-03-12T20:00:46.487Z,11.49
2019-03-12T20:03:15.380Z,11.54
2019-03-12T20:05:41.950Z,11.61
2019-03-12T20:08:08.883Z,11.59
2019-03-12T20:11:03.596Z,11.56
2019-03-12T20:14:27.788Z,11.57
2019-03-12T20:17:38.829Z,11.67
2019-03-12T20:20:42.514Z,11.55
2019-03-12T20:23:57.142Z,11.58
2019-03-12T20:26:55.876Z,11.63
2019-03-12T20:30:17.185Z,11.62
2019-03-12T20:33:22.228Z,11.73
2019-03-12T20:36:43.303Z,11.70
2019-03-12T20:39:37.021Z,11.72
2019-03-12T20:42:40.750Z,11.78
2019-03-12T20:45:48.071Z,11.80
2019-03-12T20:49:10.826Z,11.82
2019-03-12T20:52:22.909Z,11.83
2019-03-12T20:55:36.685Z,11.96
2019-03-12T20:58:40.518Z,11.97
2019-03-12T21:01:51.375Z,12.02
2019-03-12T21:04:59.105Z,11.98
2019-03-12T21:08:14.590Z,11.91
2019-03-12T21:11:19.158Z,11.84
2019-03-12T21:14:37.113Z,11.71
2019-03-12T21:17:32.289Z,11.63
2019-03-12T21:20:37.896Z,11.54
2019-03-12T21:23:11.831Z,11.50
2019-03-12T21:26:33.629Z,11.55
2019-03-12T21:29:51.684Z,11.55
2019-03-12T21:32:18.419Z,11.50
2019-03-12T21:34:45.209Z,11.50
2019-03-12T21:37:12.303Z,11.54
2019-03-12T21:39:39.026Z,11.46
2019-03-12T21:42:06.213Z,11.42
2019-03-12T21:44:33.207Z,11.33
2019-03-12T21:47:00.005Z,11.32
2019-03-12T21:49:26.761Z,11.41
2019-03-12T21:51:53.717Z,11.32
2019-03-12T21:54:20.859Z,11.40
2019-03-12T21:56:47.612Z,11.41
2019-03-12T21:59:14.714Z,11.43
2019-03-12T22:01:41.465Z,11.43
2019-03-12T22:04:08.323Z,11.40
2019-03-12T22:06:35.077Z,11.41
2019-03-12T22:09:02.186Z,11.26
2019-03-12T22:11:28.967Z,11.27
2019-03-12T22:13:55.696Z,11.32
2019-03-12T22:16:22.502Z,11.34
2019-03-12T22:18:49.322Z,10.77
2019-03-12T22:21:18.751Z,11.43
2019-03-12T22:23:47.586Z,11.41
2019-03-12T22:26:14.756Z,11.37
2019-03-12T22:28:41.778Z,11.36
2019-03-12T22:31:08.486Z,11.30
2019-03-12T22:33:35.223Z,11.27
2019-03-12T22:36:01.997Z,11.32
2019-03-12T22:38:28.739Z,11.01
2019-03-12T22:40:55.943Z,10.98
2019-03-12T22:43:22.695Z,10.65
2019-03-12T22:45:49.559Z,10.53
2019-03-12T22:48:16.275Z,10.36
2019-03-12T22:50:43.012Z,10.20
2019-03-12T22:53:12.185Z,10.10
2019-03-12T22:55:39.002Z,9.99
2019-03-12T22:58:05.922Z,9.90
2019-03-12T23:00:37.676Z,9.93
2019-03-12T23:03:06.445Z,9.83
2019-03-12T23:05:33.186Z,9.68
2019-03-12T23:07:59.941Z,9.63
2019-03-12T23:10:26.670Z,9.55
2019-03-12T23:12:53.536Z,9.40
2019-03-12T23:15:20.262Z,9.20
2019-03-12T23:17:47.013Z,9.04
2019-03-12T23:20:13.978Z,8.95
2019-03-12T23:22:40.776Z,8.87
2019-03-12T23:25:07.533Z,8.79
2019-03-12T23:27:34.274Z,8.75
2019-03-12T23:30:00.988Z,8.74
2019-03-12T23:32:30.008Z,8.72
2019-03-12T23:34:56.827Z,8.72
2019-03-12T23:37:23.537Z,8.73
2019-03-12T23:39:50.305Z,8.67
2019-03-12T23:42:17.205Z,8.65
2019-03-12T23:44:43.958Z,8.63
2019-03-12T23:47:10.716Z,8.78
2019-03-12T23:49:37.468Z,8.70
2019-03-12T23:52:04.648Z,8.73
2019-03-12T23:54:32.364Z,8.79
2019-03-12T23:57:01.765Z,8.72
2019-03-12T23:59:28.493Z,8.67
